createdAt,value
2023-01-01T00:00:06.936Z,12.67
2023-01-01T00:02:36.950Z,11.10
2023-01-01T00:05:06.497Z,8.50
2023-01-01T00:07:33.769Z,7.93
2023-01-01T00:10:19.581Z,8.37
2023-01-01T00:12:46.983Z,8.17
2023-01-01T00:15:14.274Z,7.90
2023-01-01T00:17:42.377Z,8.07
2023-01-01T00:20:10.359Z,5.73
2023-01-01T00:22:54.625Z,7.50
2023-01-01T00:25:23.290Z,8.10
2023-01-01T00:27:51.384Z,5.07
2023-01-01T00:30:40.868Z,5.77
2023-01-01T00:33:08.208Z,4.40
2023-01-01T00:35:36.471Z,3.90
2023-01-01T00:38:03.589Z,6.30
2023-01-01T00:40:31.031Z,5.60
2023-01-01T00:43:00.640Z,5.20
2023-01-01T00:45:27.995Z,3.90
2023-01-01T00:47:55.287Z,4.60
2023-01-01T00:50:23.195Z,3.30
2023-01-01T00:52:51.158Z,4.00
2023-01-01T00:55:18.787Z,3.60
2023-01-01T00:57:46.151Z,3.37
2023-01-01T01:00:15.342Z,3.40
2023-01-01T01:02:42.956Z,3.13
2023-01-01T01:05:10.862Z,3.40
2023-01-01T01:07:39.161Z,3.00
2023-01-01T01:10:07.258Z,3.43
2023-01-01T01:12:36.603Z,3.50
2023-01-01T01:15:06.758Z,3.10
2023-01-01T01:17:34.288Z,2.93
2023-01-01T01:20:01.879Z,3.17
2023-01-01T01:22:29.463Z,2.97
2023-01-01T01:24:58.072Z,3.13
2023-01-01T01:27:25.631Z,3.20
2023-01-01T01:29:53.760Z,3.30
2023-01-01T01:32:21.768Z,3.17
2023-01-01T01:34:49.574Z,3.17
2023-01-01T01:37:16.937Z,3.20
2023-01-01T01:39:46.750Z,3.13
2023-01-01T01:42:18.982Z,2.90
2023-01-01T01:44:59.316Z,2.63
2023-01-01T01:47:51.089Z,2.80
2023-01-01T01:50:32.201Z,2.50
2023-01-01T01:53:20.223Z,2.70
2023-01-01T01:56:03.283Z,2.37
2023-01-01T01:58:32.521Z,2.50
2023-01-01T02:01:00.745Z,2.73
2023-01-01T02:03:43.673Z,2.07
2023-01-01T02:06:12.226Z,2.40
2023-01-01T02:08:39.679Z,2.30
2023-01-01T02:11:07.098Z,2.50
2023-01-01T02:13:34.507Z,2.00
2023-01-01T02:16:26.547Z,2.33
2023-01-01T02:19:13.845Z,2.20
2023-01-01T02:22:14.899Z,2.53
2023-01-01T02:25:22.222Z,2.20
2023-01-01T02:28:24.298Z,2.00
2023-01-01T02:30:54.989Z,2.10
2023-01-01T02:33:26.956Z,2.30
2023-01-01T02:36:01.981Z,2.37
2023-01-01T02:38:44.049Z,2.10
2023-01-01T02:41:28.606Z,2.20
2023-01-01T02:48:53.781Z,2.00
2023-01-01T02:51:40.054Z,2.17
2023-01-01T02:54:20.260Z,1.87
2023-01-01T02:57:15.784Z,2.00
2023-01-01T03:00:27.618Z,2.03
2023-01-01T03:03:34.150Z,2.40
2023-01-01T03:06:57.661Z,1.90
2023-01-01T03:09:55.334Z,2.10
2023-01-01T03:12:43.729Z,2.40
2023-01-01T03:15:28.300Z,1.80
2023-01-01T03:18:16.317Z,2.20
2023-01-01T03:20:51.088Z,2.23
2023-01-01T03:23:28.950Z,1.83
2023-01-01T03:26:01.963Z,2.53
2023-01-01T03:28:56.281Z,2.10
2023-01-01T03:31:26.889Z,2.00
2023-01-01T03:34:10.937Z,1.77
2023-01-01T03:36:50.075Z,1.90
2023-01-01T03:39:29.733Z,1.80
2023-01-01T03:42:28.099Z,1.83
2023-01-01T03:45:04.260Z,1.80
2023-01-01T03:47:32.693Z,1.50
2023-01-01T03:50:01.426Z,1.70
2023-01-01T03:52:55.805Z,1.70
2023-01-01T03:55:35.362Z,2.30
2023-01-01T03:58:28.545Z,2.37
2023-01-01T04:01:15.848Z,1.80
2023-01-01T04:03:43.338Z,2.13
2023-01-01T04:06:12.940Z,2.10
2023-01-01T04:08:40.170Z,2.27
2023-01-01T04:11:41.697Z,1.90
2023-01-01T04:14:08.896Z,2.03
2023-01-01T04:16:36.250Z,1.90
2023-01-01T04:19:07.151Z,1.87
2023-01-01T04:21:34.776Z,1.83
2023-01-01T04:24:02.011Z,1.77
2023-01-01T04:26:29.418Z,2.10
2023-01-01T04:28:56.744Z,1.93
2023-01-01T04:31:24.025Z,2.00
2023-01-01T04:33:54.930Z,2.07
2023-01-01T04:36:22.202Z,1.73
2023-01-01T04:38:49.359Z,1.90
2023-01-01T04:41:16.656Z,1.90
2023-01-01T04:43:51.455Z,2.00
2023-01-01T04:46:21.464Z,1.90
2023-01-01T04:48:49.581Z,2.13
2023-01-01T04:51:19.523Z,2.23
2023-01-01T04:53:46.853Z,2.20
2023-01-01T04:56:21.139Z,2.00
2023-01-01T04:58:49.126Z,2.40
2023-01-01T05:01:23.462Z,2.10
2023-01-01T05:03:50.910Z,1.80
2023-01-01T05:06:18.244Z,1.97
2023-01-01T05:08:49.366Z,2.30
2023-01-01T05:11:21.084Z,2.00
2023-01-01T05:13:52.658Z,2.10
2023-01-01T05:16:24.281Z,2.00
2023-01-01T05:18:53.152Z,1.90
2023-01-01T05:21:26.818Z,1.83
2023-01-01T05:24:03.873Z,1.67
2023-01-01T05:26:41.987Z,2.17
2023-01-01T05:29:16.116Z,1.90
2023-01-01T05:31:45.543Z,2.00
2023-01-01T05:34:13.309Z,2.00
2023-01-01T05:36:41.053Z,2.10
2023-01-01T05:39:12.154Z,2.17
2023-01-01T05:41:40.831Z,1.60
2023-01-01T05:44:09.843Z,2.00
2023-01-01T05:46:37.652Z,2.00
2023-01-01T05:49:05.291Z,1.87
2023-01-01T05:54:01.798Z,2.40
2023-01-01T05:56:29.782Z,1.70
2023-01-01T05:58:57.117Z,2.00
2023-01-01T06:01:28.868Z,1.77
2023-01-01T06:04:00.051Z,2.13
2023-01-01T06:06:33.515Z,2.10
2023-01-01T06:09:05.483Z,2.17
2023-01-01T06:11:33.749Z,1.80
2023-01-01T06:14:01.875Z,1.80
2023-01-01T06:16:32.520Z,2.00
2023-01-01T06:19:00.216Z,2.33
2023-01-01T06:21:29.780Z,2.07
2023-01-01T06:24:02.215Z,2.23
2023-01-01T06:26:33.122Z,1.97
2023-01-01T06:29:02.095Z,1.97
2023-01-01T06:31:34.297Z,1.90
2023-01-01T06:34:05.858Z,2.30
2023-01-01T06:36:33.580Z,2.00
2023-01-01T06:39:00.899Z,2.20
2023-01-01T06:41:28.907Z,2.40
2023-01-01T06:43:58.328Z,2.00
2023-01-01T06:46:31.884Z,1.97
2023-01-01T06:49:06.647Z,2.20
2023-01-01T06:51:44.764Z,2.00
2023-01-01T06:54:12.401Z,2.33
2023-01-01T06:56:40.214Z,2.30
2023-01-01T06:59:07.871Z,2.07
2023-01-01T07:01:37.710Z,2.30
2023-01-01T07:04:08.494Z,2.40
2023-01-01T07:06:37.273Z,2.20
2023-01-01T07:09:06.699Z,2.47
2023-01-01T07:11:34.907Z,2.30
2023-01-01T07:14:02.927Z,2.10
2023-01-01T07:16:30.360Z,2.20
2023-01-01T07:18:57.698Z,2.20
2023-01-01T07:21:40.990Z,2.20
2023-01-01T07:24:13.200Z,2.27
2023-01-01T07:26:41.406Z,2.27
2023-01-01T07:29:09.092Z,2.40
2023-01-01T07:31:39.080Z,2.10
2023-01-01T07:34:09.739Z,2.10
2023-01-01T07:36:37.076Z,2.40
2023-01-01T07:39:04.532Z,2.40
2023-01-01T07:41:31.856Z,2.50
2023-01-01T07:43:59.358Z,2.50
2023-01-01T07:46:45.414Z,2.27
2023-01-01T07:49:12.662Z,2.27
2023-01-01T07:51:39.905Z,2.40
2023-01-01T07:54:07.790Z,2.43
2023-01-01T07:56:36.579Z,2.13
2023-01-01T07:59:04.930Z,2.67
2023-01-01T08:01:35.343Z,2.17
2023-01-01T08:04:02.625Z,2.30
2023-01-01T08:06:30.008Z,2.63
2023-01-01T08:08:57.146Z,2.63
2023-01-01T08:11:24.501Z,2.40
2023-01-01T08:13:51.784Z,2.20
2023-01-01T08:16:19.211Z,2.40
2023-01-01T08:18:47.825Z,2.50
2023-01-01T08:21:15.035Z,2.23
2023-01-01T08:23:42.203Z,2.30
2023-01-01T08:26:18.562Z,2.53
2023-01-01T08:28:47.849Z,2.17
2023-01-01T08:31:18.053Z,2.43
2023-01-01T08:33:45.251Z,2.50
2023-01-01T08:36:15.005Z,2.50
2023-01-01T08:38:43.578Z,2.50
2023-01-01T08:41:11.805Z,2.63
2023-01-01T08:43:38.960Z,2.90
2023-01-01T08:47:23.335Z,2.70
2023-01-01T08:49:51.329Z,2.80
2023-01-01T08:52:19.368Z,2.40
2023-01-01T08:54:46.917Z,2.77
2023-01-01T08:57:14.716Z,2.23
2023-01-01T08:59:41.964Z,2.60
2023-01-01T09:02:12.282Z,2.77
2023-01-01T09:04:40.031Z,2.23
2023-01-01T09:07:07.653Z,2.40
2023-01-01T09:09:35.462Z,2.53
2023-01-01T09:12:06.433Z,2.30
2023-01-01T09:14:35.328Z,2.80
2023-01-01T09:17:03.536Z,2.33
2023-01-01T09:19:30.704Z,2.87
2023-01-01T09:21:58.385Z,2.07
2023-01-01T09:24:25.798Z,2.70
2023-01-01T09:26:53.065Z,2.53
2023-01-01T09:29:21.884Z,2.20
2023-01-01T09:31:49.807Z,2.70
2023-01-01T09:34:18.292Z,2.60
2023-01-01T09:36:48.012Z,2.63
2023-01-01T09:39:16.483Z,2.33
2023-01-01T09:42:26.624Z,2.73
2023-01-01T09:44:59.411Z,2.50
2023-01-01T09:47:44.565Z,2.93
2023-01-01T09:50:37.601Z,2.80
2023-01-01T09:53:28.316Z,2.10
2023-01-01T09:56:02.329Z,2.20
2023-01-01T09:58:39.209Z,2.57
2023-01-01T10:02:08.739Z,2.33
2023-01-01T10:05:01.671Z,2.80
2023-01-01T10:07:56.664Z,2.50
2023-01-01T10:10:59.339Z,2.53
2023-01-01T10:13:46.193Z,2.63
2023-01-01T10:16:31.746Z,2.93
2023-01-01T10:19:43.180Z,2.40
2023-01-01T10:22:19.331Z,2.50
2023-01-01T10:25:18.670Z,2.37
2023-01-01T10:27:59.183Z,2.37
2023-01-01T10:30:28.361Z,2.50
2023-01-01T10:32:57.777Z,2.80
2023-01-01T10:35:35.575Z,2.67
2023-01-01T10:38:05.984Z,2.00
2023-01-01T10:40:34.191Z,2.63
2023-01-01T10:43:04.066Z,3.10
2023-01-01T10:45:41.233Z,2.73
2023-01-01T10:48:27.550Z,2.60
2023-01-01T10:51:16.470Z,2.80
2023-01-01T10:53:51.154Z,2.60
2023-01-01T10:56:24.727Z,2.50
2023-01-01T10:58:55.615Z,2.30
2023-01-01T11:01:32.733Z,2.40
2023-01-01T11:04:06.338Z,2.33
2023-01-01T11:06:39.918Z,2.50
2023-01-01T11:09:32.155Z,3.20
2023-01-01T11:13:02.411Z,2.90
2023-01-01T11:15:20.256Z,2.40
2023-01-01T11:17:47.609Z,2.33
2023-01-01T11:20:20.906Z,2.10
2023-01-01T11:22:52.480Z,2.40
2023-01-01T11:25:27.561Z,2.67
2023-01-01T11:28:17.652Z,2.40
2023-01-01T11:31:01.850Z,2.70
2023-01-01T11:33:33.969Z,3.07
2023-01-01T11:36:05.494Z,2.77
2023-01-01T11:38:32.988Z,2.80
2023-01-01T11:41:07.455Z,2.63
2023-01-01T11:43:54.960Z,2.23
2023-01-01T11:46:25.684Z,2.40
2023-01-01T11:48:55.277Z,2.47
2023-01-01T11:51:32.737Z,2.20
2023-01-01T11:54:36.231Z,2.40
2023-01-01T11:57:17.944Z,2.43
2023-01-01T12:00:04.996Z,2.47
2023-01-01T12:02:45.629Z,2.63
2023-01-01T12:05:49.563Z,3.00
2023-01-01T12:09:01.032Z,2.43
2023-01-01T12:11:44.903Z,2.83
2023-01-01T12:14:46.311Z,2.57
2023-01-01T12:17:26.569Z,2.43
2023-01-01T12:20:02.794Z,2.07
2023-01-01T12:22:30.734Z,2.50
2023-01-01T12:24:59.118Z,2.33
2023-01-01T12:27:38.397Z,2.50
2023-01-01T12:30:21.048Z,2.50
2023-01-01T12:33:15.785Z,2.70
2023-01-01T12:36:13.491Z,2.70
2023-01-01T12:39:30.904Z,2.30
2023-01-01T12:42:23.932Z,2.50
2023-01-01T12:45:35.749Z,2.33
2023-01-01T12:48:22.684Z,2.80
2023-01-01T12:51:28.009Z,2.37
2023-01-01T12:54:58.052Z,2.63
2023-01-01T12:57:41.341Z,2.40
2023-01-01T13:00:20.122Z,2.87
2023-01-01T13:03:02.170Z,2.70
2023-01-01T13:05:48.261Z,2.33
2023-01-01T13:08:15.499Z,2.77
2023-01-01T13:10:47.599Z,3.20
2023-01-01T13:13:15.830Z,2.63
2023-01-01T13:15:49.945Z,2.73
2023-01-01T13:18:17.141Z,2.50
2023-01-01T13:21:02.489Z,2.47
2023-01-01T13:23:32.173Z,2.13
2023-01-01T13:26:18.362Z,2.40
2023-01-01T13:29:05.643Z,3.50
2023-01-01T13:32:01.383Z,2.93
2023-01-01T13:34:35.449Z,2.60
2023-01-01T13:37:15.169Z,2.70
2023-01-01T13:40:29.772Z,2.50
2023-01-01T13:43:02.315Z,2.50
2023-01-01T13:49:07.140Z,2.50
2023-01-01T13:52:08.911Z,2.70
2023-01-01T13:55:13.520Z,2.20
2023-01-01T13:57:55.611Z,2.50
2023-01-01T14:00:49.768Z,2.20
2023-01-01T14:03:19.057Z,2.87
2023-01-01T14:05:59.493Z,2.30
2023-01-01T14:08:36.052Z,2.47
2023-01-01T14:11:23.719Z,2.50
2023-01-01T14:13:51.236Z,2.53
2023-01-01T14:16:19.118Z,2.17
2023-01-01T14:18:51.753Z,2.67
2023-01-01T14:21:22.820Z,2.30
2023-01-01T14:23:53.175Z,2.60
2023-01-01T14:26:24.712Z,2.57
2023-01-01T14:29:10.245Z,3.00
2023-01-01T14:31:44.243Z,3.17
2023-01-01T14:34:31.758Z,2.57
2023-01-01T14:37:04.448Z,2.50
2023-01-01T14:39:36.967Z,2.37
2023-01-01T14:42:17.835Z,2.83
2023-01-01T14:44:50.185Z,2.63
2023-01-01T14:47:30.485Z,2.70
2023-01-01T14:50:09.441Z,2.70
2023-01-01T14:52:37.054Z,2.53
2023-01-01T14:55:08.472Z,2.80
2023-01-01T14:57:37.998Z,2.40
2023-01-01T15:00:34.375Z,2.40
2023-01-01T15:03:28.069Z,2.60
2023-01-01T15:06:01.573Z,2.43
2023-01-01T15:08:32.260Z,2.50
2023-01-01T15:11:03.658Z,2.50
2023-01-01T15:13:31.002Z,2.60
2023-01-01T15:16:20.185Z,3.13
2023-01-01T15:18:53.458Z,2.70
2023-01-01T15:21:41.679Z,2.57
2023-01-01T15:24:14.519Z,2.57
2023-01-01T15:26:52.300Z,2.50
2023-01-01T15:29:41.448Z,2.27
2023-01-01T15:32:13.944Z,2.10
2023-01-01T15:34:49.985Z,2.50
2023-01-01T15:37:38.330Z,2.57
2023-01-01T15:40:25.345Z,2.73
2023-01-01T15:42:55.714Z,2.40
2023-01-01T15:45:25.862Z,2.23
2023-01-01T15:48:30.142Z,2.40
2023-01-01T15:51:17.015Z,1.90
2023-01-01T15:53:55.501Z,3.20
2023-01-01T15:56:30.636Z,3.27
2023-01-01T15:59:36.186Z,2.50
2023-01-01T16:02:18.162Z,2.57
2023-01-01T16:04:48.416Z,2.77
2023-01-01T16:07:23.532Z,2.50
2023-01-01T16:09:57.370Z,2.40
2023-01-01T16:12:25.443Z,2.57
2023-01-01T16:14:55.509Z,2.93
2023-01-01T16:17:22.971Z,21.70
2023-01-01T16:19:51.861Z,10.57
2023-01-01T16:22:20.357Z,18.60
2023-01-01T16:24:47.997Z,24.00
2023-01-01T16:27:15.293Z,32.07
2023-01-01T16:29:43.862Z,29.97
2023-01-01T16:32:18.854Z,36.87
2023-01-01T16:34:46.316Z,30.97
2023-01-01T16:37:13.481Z,66.57
2023-01-01T16:39:40.811Z,191.07
2023-01-01T16:42:15.361Z,134.87
2023-01-01T16:44:43.122Z,257.93
2023-01-01T16:47:11.180Z,194.03
2023-01-01T16:49:38.481Z,107.83
2023-01-01T16:52:05.788Z,53.27
2023-01-01T16:54:33.752Z,23.13
2023-01-01T16:57:01.222Z,12.57
2023-01-01T16:59:28.656Z,6.50
2023-01-01T17:01:56.248Z,4.20
2023-01-01T17:04:23.754Z,7.20
2023-01-01T17:06:51.200Z,4.70
2023-01-01T17:09:18.563Z,9.60
2023-01-01T17:11:46.274Z,11.00
2023-01-01T17:14:13.740Z,39.13
2023-01-01T17:16:41.605Z,30.57
2023-01-01T17:19:15.425Z,52.60
2023-01-01T17:21:46.148Z,49.97
2023-01-01T17:24:15.235Z,60.57
2023-01-01T17:26:42.986Z,59.57
2023-01-01T17:29:10.546Z,62.53
2023-01-01T17:31:38.377Z,31.63
2023-01-01T17:34:05.629Z,43.63
2023-01-01T17:36:32.981Z,53.67
2023-01-01T17:39:00.401Z,74.97
2023-01-01T17:41:27.593Z,79.30
2023-01-01T17:43:56.599Z,46.37
2023-01-01T17:46:28.690Z,120.53
2023-01-01T17:48:56.297Z,63.37
2023-01-01T17:51:24.070Z,62.30
2023-01-01T17:53:53.403Z,75.87
2023-01-01T17:56:23.492Z,50.40
2023-01-01T17:58:54.039Z,62.63
2023-01-01T18:01:24.644Z,35.77
2023-01-01T18:03:58.914Z,76.77
2023-01-01T18:06:26.346Z,32.80
2023-01-01T18:08:59.405Z,31.00
2023-01-01T18:11:29.184Z,15.27
2023-01-01T18:13:58.009Z,9.20
2023-01-01T18:16:26.302Z,4.83
2023-01-01T18:18:53.673Z,3.60
2023-01-01T18:21:24.109Z,3.33
2023-01-01T18:23:55.566Z,4.60
2023-01-01T18:26:26.648Z,6.67
2023-01-01T18:29:02.101Z,4.90
2023-01-01T18:31:33.794Z,4.10
2023-01-01T18:34:08.638Z,4.20
2023-01-01T18:36:36.338Z,4.00
2023-01-01T18:39:26.330Z,5.13
2023-01-01T18:42:37.932Z,3.27
2023-01-01T18:45:19.465Z,2.53
2023-01-01T18:47:47.483Z,2.80
2023-01-01T18:50:26.772Z,3.07
2023-01-01T18:53:20.573Z,4.60
2023-01-01T18:55:54.252Z,4.50
2023-01-01T18:58:26.043Z,3.67
2023-01-01T19:00:54.975Z,3.57
2023-01-01T19:03:28.609Z,3.40
2023-01-01T19:05:58.401Z,3.10
2023-01-01T19:08:30.433Z,3.40
2023-01-01T19:11:03.286Z,3.40
2023-01-01T19:13:35.459Z,3.60
2023-01-01T19:16:29.831Z,3.67
2023-01-01T19:19:21.179Z,3.47
2023-01-01T19:21:52.632Z,3.80
2023-01-01T19:24:24.651Z,4.20
2023-01-01T19:27:10.339Z,4.53
2023-01-01T19:29:43.927Z,4.50
2023-01-01T19:32:11.181Z,4.87
2023-01-01T19:34:39.867Z,5.20
2023-01-01T19:37:09.137Z,4.60
2023-01-01T19:39:36.439Z,4.60
2023-01-01T19:42:07.268Z,4.17
2023-01-01T19:44:36.774Z,4.90
2023-01-01T19:47:05.177Z,4.60
2023-01-01T19:49:32.735Z,4.90
2023-01-01T19:52:00.210Z,5.00
2023-01-01T19:54:27.575Z,5.13
2023-01-01T19:56:55.168Z,5.00
2023-01-01T19:59:26.353Z,6.87
2023-01-01T20:02:26.115Z,4.70
2023-01-01T20:04:45.691Z,4.50
2023-01-01T20:07:13.013Z,4.93
2023-01-01T20:09:40.356Z,3.80
2023-01-01T20:12:07.835Z,4.83
2023-01-01T20:14:35.443Z,4.80
2023-01-01T20:17:02.797Z,6.07
2023-01-01T20:19:30.260Z,6.93
2023-01-01T20:22:14.464Z,5.73
2023-01-01T20:24:42.619Z,5.67
2023-01-01T20:27:10.973Z,5.83
2023-01-01T20:29:39.237Z,9.93
2023-01-01T20:32:12.792Z,9.10
2023-01-01T20:34:40.769Z,8.47
2023-01-01T20:37:27.357Z,8.30
2023-01-01T20:39:55.235Z,6.83
2023-01-01T20:42:23.368Z,5.03
2023-01-01T20:44:50.584Z,4.90
2023-01-01T20:47:17.892Z,5.00
2023-01-01T20:49:45.267Z,4.57
2023-01-01T20:52:12.622Z,4.67
2023-01-01T20:54:39.926Z,4.30
2023-01-01T20:57:07.383Z,4.23
2023-01-01T20:59:37.053Z,4.30
2023-01-01T21:02:08.612Z,4.17
2023-01-01T21:04:39.226Z,4.00
2023-01-01T21:07:12.073Z,4.10
2023-01-01T21:09:41.463Z,3.83
2023-01-01T21:12:09.929Z,3.90
2023-01-01T21:14:37.729Z,4.20
2023-01-01T21:17:23.194Z,3.80
2023-01-01T21:19:54.214Z,4.40
2023-01-01T21:22:21.640Z,4.20
2023-01-01T21:24:54.019Z,4.20
2023-01-01T21:27:31.433Z,3.87
2023-01-01T21:29:59.364Z,4.37
2023-01-01T21:32:45.504Z,4.27
2023-01-01T21:35:34.500Z,4.67
2023-01-01T21:38:19.054Z,4.43
2023-01-01T21:40:53.506Z,4.47
2023-01-01T21:43:27.308Z,4.40
2023-01-01T21:45:59.701Z,4.40
2023-01-01T21:48:42.360Z,4.63
2023-01-01T21:51:36.163Z,4.00
2023-01-01T21:54:19.942Z,4.13
2023-01-01T21:57:00.369Z,4.57
2023-01-01T21:59:37.809Z,4.43
2023-01-01T22:02:37.411Z,4.83
2023-01-01T22:05:32.273Z,4.83
2023-01-01T22:08:19.543Z,4.30
2023-01-01T22:10:47.211Z,4.43
2023-01-01T22:13:18.107Z,4.93
2023-01-01T22:15:46.623Z,4.93
2023-01-01T22:18:26.797Z,4.93
2023-01-01T22:20:54.519Z,4.63
2023-01-01T22:23:29.837Z,4.80
2023-01-01T22:25:57.246Z,4.30
2023-01-01T22:28:29.907Z,4.83
2023-01-01T22:31:01.030Z,4.67
2023-01-01T22:33:43.159Z,5.23
2023-01-01T22:36:27.943Z,4.67
2023-01-01T22:39:00.981Z,4.43
2023-01-01T22:41:28.542Z,4.77
2023-01-01T22:44:04.698Z,5.30
2023-01-01T22:46:40.557Z,4.73
2023-01-01T22:49:38.912Z,4.90
2023-01-01T22:52:07.709Z,4.90
2023-01-01T22:54:35.013Z,4.70
2023-01-01T22:57:02.597Z,4.60
2023-01-01T22:59:32.726Z,4.60
2023-01-01T23:02:00.649Z,4.93
2023-01-01T23:04:28.095Z,4.80
2023-01-01T23:06:55.624Z,4.73
2023-01-01T23:09:24.299Z,4.33
2023-01-01T23:11:54.774Z,4.77
2023-01-01T23:14:40.782Z,4.80
2023-01-01T23:17:08.473Z,4.60
2023-01-01T23:19:35.853Z,4.40
2023-01-01T23:22:04.330Z,3.77
2023-01-01T23:24:32.713Z,4.90
2023-01-01T23:27:01.292Z,4.57
2023-01-01T23:29:35.989Z,4.60
2023-01-01T23:32:03.722Z,5.37
2023-01-01T23:34:31.426Z,5.30
2023-01-01T23:36:59.132Z,4.40
2023-01-01T23:39:26.936Z,4.53
2023-01-01T23:41:54.216Z,4.90
2023-01-01T23:44:21.464Z,4.80
2023-01-01T23:46:52.357Z,4.97
2023-01-01T23:49:21.842Z,4.27
2023-01-01T23:51:49.564Z,4.13
2023-01-01T23:54:17.136Z,4.57
2023-01-01T23:56:44.594Z,4.90
2023-01-01T23:59:14.689Z,4.80
